sensor_id;sensor_type;location;lat;lon;timestamp;P1;durP1;ratioP1;P2;durP2;ratioP2
22388;SDS011;11362;48.102;11.620;2022-07-06T00:02:14;0.90;;;0.90;;
22388;SDS011;11362;48.102;11.620;2022-07-06T00:04:39;0.87;;;0.87;;
22388;SDS011;11362;48.102;11.620;2022-07-06T00:07:04;1.07;;;1.00;;
22388;SDS011;11362;48.102;11.620;2022-07-06T00:09:30;1.17;;;0.87;;
22388;SDS011;11362;48.102;11.620;2022-07-06T00:11:55;0.67;;;0.67;;
22388;SDS011;11362;48.102;11.620;2022-07-06T00:14:20;1.30;;;1.20;;
22388;SDS011;11362;48.102;11.620;2022-07-06T00:16:46;0.80;;;0.80;;
22388;SDS011;11362;48.102;11.620;2022-07-06T00:19:11;1.00;;;1.00;;
22388;SDS011;11362;48.102;11.620;2022-07-06T00:21:37;0.83;;;0.83;;
22388;SDS011;11362;48.102;11.620;2022-07-06T00:24:02;0.90;;;0.90;;
22388;SDS011;11362;48.102;11.620;2022-07-06T00:26:28;0.73;;;0.73;;
22388;SDS011;11362;48.102;11.620;2022-07-06T00:28:53;0.80;;;0.80;;
22388;SDS011;11362;48.102;11.620;2022-07-06T00:31:18;0.90;;;0.90;;
22388;SDS011;11362;48.102;11.620;2022-07-06T00:33:44;0.80;;;0.80;;
22388;SDS011;11362;48.102;11.620;2022-07-06T00:36:09;1.00;;;1.00;;
22388;SDS011;11362;48.102;11.620;2022-07-06T00:38:35;0.70;;;0.70;;
22388;SDS011;11362;48.102;11.620;2022-07-06T00:41:00;1.03;;;0.90;;
22388;SDS011;11362;48.102;11.620;2022-07-06T00:43:25;2.00;;;0.90;;
22388;SDS011;11362;48.102;11.620;2022-07-06T00:45:51;0.80;;;0.70;;
22388;SDS011;11362;48.102;11.620;2022-07-06T00:48:16;0.93;;;0.90;;
22388;SDS011;11362;48.102;11.620;2022-07-06T00:50:42;1.00;;;1.00;;
22388;SDS011;11362;48.102;11.620;2022-07-06T00:53:07;1.13;;;0.80;;
22388;SDS011;11362;48.102;11.620;2022-07-06T00:55:37;0.80;;;0.80;;
22388;SDS011;11362;48.102;11.620;2022-07-06T00:58:03;0.80;;;0.77;;
22388;SDS011;11362;48.102;11.620;2022-07-06T01:00:30;0.90;;;0.90;;
22388;SDS011;11362;48.102;11.620;2022-07-06T01:02:56;0.90;;;0.90;;
22388;SDS011;11362;48.102;11.620;2022-07-06T01:05:22;0.70;;;0.70;;
22388;SDS011;11362;48.102;11.620;2022-07-06T01:07:48;1.30;;;1.20;;
22388;SDS011;11362;48.102;11.620;2022-07-06T01:10:15;0.80;;;0.80;;
22388;SDS011;11362;48.102;11.620;2022-07-06T01:12:42;0.83;;;0.83;;
22388;SDS011;11362;48.102;11.620;2022-07-06T01:15:15;0.70;;;0.70;;
22388;SDS011;11362;48.102;11.620;2022-07-06T01:17:42;0.93;;;0.93;;
22388;SDS011;11362;48.102;11.620;2022-07-06T01:20:12;0.80;;;0.80;;
22388;SDS011;11362;48.102;11.620;2022-07-06T01:22:48;0.77;;;0.77;;
22388;SDS011;11362;48.102;11.620;2022-07-06T01:25:15;0.80;;;0.80;;
22388;SDS011;11362;48.102;11.620;2022-07-06T01:27:41;0.60;;;0.60;;
22388;SDS011;11362;48.102;11.620;2022-07-06T01:30:08;0.77;;;0.77;;
22388;SDS011;11362;48.102;11.620;2022-07-06T01:32:36;0.73;;;0.73;;
22388;SDS011;11362;48.102;11.620;2022-07-06T01:35:02;1.80;;;0.90;;
22388;SDS011;11362;48.102;11.620;2022-07-06T01:37:28;0.80;;;0.80;;
22388;SDS011;11362;48.102;11.620;2022-07-06T01:39:53;0.80;;;0.80;;
22388;SDS011;11362;48.102;11.620;2022-07-06T01:42:18;0.77;;;0.63;;
22388;SDS011;11362;48.102;11.620;2022-07-06T01:44:44;0.60;;;0.60;;
22388;SDS011;11362;48.102;11.620;2022-07-06T01:47:10;0.80;;;0.80;;
22388;SDS011;11362;48.102;11.620;2022-07-06T01:49:36;0.90;;;0.90;;
22388;SDS011;11362;48.102;11.620;2022-07-06T01:52:01;1.33;;;1.10;;
22388;SDS011;11362;48.102;11.620;2022-07-06T01:54:27;1.10;;;1.00;;
22388;SDS011;11362;48.102;11.620;2022-07-06T01:56:52;0.80;;;0.80;;
22388;SDS011;11362;48.102;11.620;2022-07-06T01:59:18;0.77;;;0.77;;
22388;SDS011;11362;48.102;11.620;2022-07-06T02:01:43;0.67;;;0.67;;
22388;SDS011;11362;48.102;11.620;2022-07-06T02:04:08;0.60;;;0.60;;
22388;SDS011;11362;48.102;11.620;2022-07-06T02:06:34;0.50;;;0.50;;
22388;SDS011;11362;48.102;11.620;2022-07-06T02:08:59;0.93;;;0.90;;
22388;SDS011;11362;48.102;11.620;2022-07-06T02:11:24;0.80;;;0.80;;
22388;SDS011;11362;48.102;11.620;2022-07-06T02:13:50;0.70;;;0.70;;
22388;SDS011;11362;48.102;11.620;2022-07-06T02:16:15;0.70;;;0.70;;
22388;SDS011;11362;48.102;11.620;2022-07-06T02:18:40;1.10;;;0.70;;
22388;SDS011;11362;48.102;11.620;2022-07-06T02:21:06;1.47;;;0.80;;
22388;SDS011;11362;48.102;11.620;2022-07-06T02:23:31;0.60;;;0.60;;
22388;SDS011;11362;48.102;11.620;2022-07-06T02:25:57;0.60;;;0.60;;
22388;SDS011;11362;48.102;11.620;2022-07-06T02:28:22;0.70;;;0.70;;
22388;SDS011;11362;48.102;11.620;2022-07-06T02:30:47;0.97;;;0.97;;
22388;SDS011;11362;48.102;11.620;2022-07-06T02:33:13;0.70;;;0.70;;
22388;SDS011;11362;48.102;11.620;2022-07-06T02:35:38;0.80;;;0.80;;
22388;SDS011;11362;48.102;11.620;2022-07-06T02:38:03;0.70;;;0.70;;
22388;SDS011;11362;48.102;11.620;2022-07-06T02:40:29;0.70;;;0.70;;
22388;SDS011;11362;48.102;11.620;2022-07-06T02:42:54;0.80;;;0.80;;
22388;SDS011;11362;48.102;11.620;2022-07-06T02:45:19;2.30;;;0.80;;
22388;SDS011;11362;48.102;11.620;2022-07-06T02:47:44;0.50;;;0.50;;
22388;SDS011;11362;48.102;11.620;2022-07-06T02:50:10;0.73;;;0.73;;
22388;SDS011;11362;48.102;11.620;2022-07-06T02:52:35;0.73;;;0.73;;
22388;SDS011;11362;48.102;11.620;2022-07-06T02:55:00;0.70;;;0.70;;
22388;SDS011;11362;48.102;11.620;2022-07-06T02:57:26;0.77;;;0.77;;
22388;SDS011;11362;48.102;11.620;2022-07-06T02:59:51;0.70;;;0.70;;
22388;SDS011;11362;48.102;11.620;2022-07-06T03:02:17;0.67;;;0.67;;
22388;SDS011;11362;48.102;11.620;2022-07-06T03:04:42;0.60;;;0.60;;
22388;SDS011;11362;48.102;11.620;2022-07-06T03:07:08;0.80;;;0.80;;
22388;SDS011;11362;48.102;11.620;2022-07-06T03:09:33;0.97;;;0.87;;
22388;SDS011;11362;48.102;11.620;2022-07-06T03:11:59;0.77;;;0.77;;
22388;SDS011;11362;48.102;11.620;2022-07-06T03:14:24;0.50;;;0.50;;
22388;SDS011;11362;48.102;11.620;2022-07-06T03:16:49;0.80;;;0.80;;
22388;SDS011;11362;48.102;11.620;2022-07-06T03:19:14;0.70;;;0.70;;
22388;SDS011;11362;48.102;11.620;2022-07-06T03:21:40;0.70;;;0.70;;
22388;SDS011;11362;48.102;11.620;2022-07-06T03:24:05;0.60;;;0.60;;
22388;SDS011;11362;48.102;11.620;2022-07-06T03:26:30;0.67;;;0.67;;
22388;SDS011;11362;48.102;11.620;2022-07-06T03:28:56;0.60;;;0.60;;
22388;SDS011;11362;48.102;11.620;2022-07-06T03:31:21;0.50;;;0.50;;
22388;SDS011;11362;48.102;11.620;2022-07-06T03:33:47;1.03;;;0.67;;
22388;SDS011;11362;48.102;11.620;2022-07-06T03:36:12;0.70;;;0.70;;
22388;SDS011;11362;48.102;11.620;2022-07-06T03:38:37;0.70;;;0.70;;
22388;SDS011;11362;48.102;11.620;2022-07-06T03:41:03;0.80;;;0.80;;
22388;SDS011;11362;48.102;11.620;2022-07-06T03:43:28;0.60;;;0.60;;
22388;SDS011;11362;48.102;11.620;2022-07-06T03:45:54;0.60;;;0.60;;
22388;SDS011;11362;48.102;11.620;2022-07-06T03:48:19;1.17;;;0.60;;
22388;SDS011;11362;48.102;11.620;2022-07-06T03:50:44;0.70;;;0.70;;
22388;SDS011;11362;48.102;11.620;2022-07-06T03:53:10;1.23;;;0.83;;
22388;SDS011;11362;48.102;11.620;2022-07-06T03:55:35;0.60;;;0.60;;
22388;SDS011;11362;48.102;11.620;2022-07-06T03:58:00;0.77;;;0.60;;
22388;SDS011;11362;48.102;11.620;2022-07-06T04:00:26;0.77;;;0.77;;
22388;SDS011;11362;48.102;11.620;2022-07-06T04:02:51;0.50;;;0.50;;
22388;SDS011;11362;48.102;11.620;2022-07-06T04:05:17;0.70;;;0.70;;
22388;SDS011;11362;48.102;11.620;2022-07-06T04:07:42;0.50;;;0.50;;
22388;SDS011;11362;48.102;11.620;2022-07-06T04:10:07;0.77;;;0.53;;
22388;SDS011;11362;48.102;11.620;2022-07-06T04:12:39;0.50;;;0.50;;
22388;SDS011;11362;48.102;11.620;2022-07-06T04:15:05;0.43;;;0.43;;
22388;SDS011;11362;48.102;11.620;2022-07-06T04:17:30;0.70;;;0.70;;
22388;SDS011;11362;48.102;11.620;2022-07-06T04:19:56;0.60;;;0.60;;
22388;SDS011;11362;48.102;11.620;2022-07-06T04:22:21;0.87;;;0.57;;
22388;SDS011;11362;48.102;11.620;2022-07-06T04:24:46;0.50;;;0.50;;
22388;SDS011;11362;48.102;11.620;2022-07-06T04:27:12;2.10;;;0.60;;
22388;SDS011;11362;48.102;11.620;2022-07-06T04:29:37;1.63;;;0.67;;
22388;SDS011;11362;48.102;11.620;2022-07-06T04:32:02;0.63;;;0.63;;
22388;SDS011;11362;48.102;11.620;2022-07-06T04:34:28;0.70;;;0.70;;
22388;SDS011;11362;48.102;11.620;2022-07-06T04:36:53;0.70;;;0.70;;
22388;SDS011;11362;48.102;11.620;2022-07-06T04:39:19;0.60;;;0.60;;
22388;SDS011;11362;48.102;11.620;2022-07-06T04:41:44;0.60;;;0.60;;
22388;SDS011;11362;48.102;11.620;2022-07-06T04:44:09;0.60;;;0.60;;
22388;SDS011;11362;48.102;11.620;2022-07-06T04:46:35;0.70;;;0.70;;
22388;SDS011;11362;48.102;11.620;2022-07-06T04:49:00;0.63;;;0.50;;
22388;SDS011;11362;48.102;11.620;2022-07-06T04:51:25;0.60;;;0.50;;
22388;SDS011;11362;48.102;11.620;2022-07-06T04:53:51;0.73;;;0.73;;
22388;SDS011;11362;48.102;11.620;2022-07-06T04:56:16;0.50;;;0.50;;
22388;SDS011;11362;48.102;11.620;2022-07-06T04:58:41;0.63;;;0.60;;
22388;SDS011;11362;48.102;11.620;2022-07-06T05:01:07;0.77;;;0.77;;
22388;SDS011;11362;48.102;11.620;2022-07-06T05:03:33;0.87;;;0.67;;
22388;SDS011;11362;48.102;11.620;2022-07-06T05:05:58;0.60;;;0.60;;
22388;SDS011;11362;48.102;11.620;2022-07-06T05:08:23;0.73;;;0.73;;
22388;SDS011;11362;48.102;11.620;2022-07-06T05:10:49;0.70;;;0.70;;
22388;SDS011;11362;48.102;11.620;2022-07-06T05:13:14;0.50;;;0.50;;
22388;SDS011;11362;48.102;11.620;2022-07-06T05:15:39;0.60;;;0.60;;
22388;SDS011;11362;48.102;11.620;2022-07-06T05:18:05;0.50;;;0.50;;
22388;SDS011;11362;48.102;11.620;2022-07-06T05:20:30;0.50;;;0.50;;
22388;SDS011;11362;48.102;11.620;2022-07-06T05:22:55;0.43;;;0.43;;
22388;SDS011;11362;48.102;11.620;2022-07-06T05:25:21;1.93;;;0.57;;
22388;SDS011;11362;48.102;11.620;2022-07-06T05:27:46;0.67;;;0.60;;
22388;SDS011;11362;48.102;11.620;2022-07-06T05:30:11;1.03;;;0.60;;
22388;SDS011;11362;48.102;11.620;2022-07-06T05:32:37;2.53;;;0.70;;
22388;SDS011;11362;48.102;11.620;2022-07-06T05:35:02;1.43;;;0.77;;
22388;SDS011;11362;48.102;11.620;2022-07-06T05:37:28;3.70;;;0.70;;
22388;SDS011;11362;48.102;11.620;2022-07-06T05:39:53;1.60;;;0.70;;
22388;SDS011;11362;48.102;11.620;2022-07-06T05:42:18;0.90;;;0.90;;
22388;SDS011;11362;48.102;11.620;2022-07-06T05:44:43;1.20;;;1.10;;
22388;SDS011;11362;48.102;11.620;2022-07-06T05:47:09;3.53;;;1.50;;
22388;SDS011;11362;48.102;11.620;2022-07-06T05:49:34;6.33;;;1.10;;
22388;SDS011;11362;48.102;11.620;2022-07-06T05:51:59;7.03;;;1.40;;
22388;SDS011;11362;48.102;11.620;2022-07-06T05:54:25;5.57;;;1.70;;
22388;SDS011;11362;48.102;11.620;2022-07-06T05:56:50;4.37;;;1.10;;
22388;SDS011;11362;48.102;11.620;2022-07-06T05:59:15;2.47;;;1.07;;
22388;SDS011;11362;48.102;11.620;2022-07-06T06:01:40;13.63;;;2.20;;
22388;SDS011;11362;48.102;11.620;2022-07-06T06:04:06;9.53;;;1.47;;
22388;SDS011;11362;48.102;11.620;2022-07-06T06:06:31;8.80;;;1.60;;
22388;SDS011;11362;48.102;11.620;2022-07-06T06:08:56;6.33;;;1.10;;
22388;SDS011;11362;48.102;11.620;2022-07-06T06:11:22;9.63;;;1.43;;
22388;SDS011;11362;48.102;11.620;2022-07-06T06:13:47;16.67;;;3.43;;
22388;SDS011;11362;48.102;11.620;2022-07-06T06:16:12;8.77;;;1.90;;
22388;SDS011;11362;48.102;11.620;2022-07-06T06:18:37;14.73;;;2.00;;
22388;SDS011;11362;48.102;11.620;2022-07-06T06:21:03;14.57;;;2.03;;
22388;SDS011;11362;48.102;11.620;2022-07-06T06:23:28;22.17;;;2.07;;
22388;SDS011;11362;48.102;11.620;2022-07-06T06:25:53;10.03;;;2.70;;
22388;SDS011;11362;48.102;11.620;2022-07-06T06:28:19;5.77;;;1.87;;
22388;SDS011;11362;48.102;11.620;2022-07-06T06:30:44;13.30;;;2.10;;
22388;SDS011;11362;48.102;11.620;2022-07-06T06:33:14;8.33;;;2.10;;
22388;SDS011;11362;48.102;11.620;2022-07-06T06:35:44;7.43;;;2.30;;
22388;SDS011;11362;48.102;11.620;2022-07-06T06:38:10;6.40;;;1.70;;
22388;SDS011;11362;48.102;11.620;2022-07-06T06:40:36;10.70;;;2.10;;
22388;SDS011;11362;48.102;11.620;2022-07-06T06:43:01;8.73;;;1.63;;
22388;SDS011;11362;48.102;11.620;2022-07-06T06:45:27;9.97;;;1.90;;
22388;SDS011;11362;48.102;11.620;2022-07-06T06:47:53;4.23;;;1.33;;
22388;SDS011;11362;48.102;11.620;2022-07-06T06:50:19;7.80;;;2.07;;
22388;SDS011;11362;48.102;11.620;2022-07-06T06:52:44;5.70;;;1.53;;
22388;SDS011;11362;48.102;11.620;2022-07-06T06:55:10;8.87;;;1.63;;
22388;SDS011;11362;48.102;11.620;2022-07-06T06:57:35;3.20;;;1.63;;
22388;SDS011;11362;48.102;11.620;2022-07-06T07:00:01;9.73;;;1.80;;
22388;SDS011;11362;48.102;11.620;2022-07-06T07:02:26;5.27;;;1.77;;
22388;SDS011;11362;48.102;11.620;2022-07-06T07:04:51;4.90;;;1.50;;
22388;SDS011;11362;48.102;11.620;2022-07-06T07:07:16;2.57;;;1.27;;
22388;SDS011;11362;48.102;11.620;2022-07-06T07:09:42;4.33;;;1.90;;
22388;SDS011;11362;48.102;11.620;2022-07-06T07:12:07;4.77;;;1.50;;
22388;SDS011;11362;48.102;11.620;2022-07-06T07:14:32;9.07;;;1.40;;
22388;SDS011;11362;48.102;11.620;2022-07-06T07:16:58;3.23;;;1.23;;
22388;SDS011;11362;48.102;11.620;2022-07-06T07:19:23;5.37;;;1.87;;
22388;SDS011;11362;48.102;11.620;2022-07-06T07:21:48;1.53;;;1.30;;
22388;SDS011;11362;48.102;11.620;2022-07-06T07:24:14;3.47;;;1.43;;
22388;SDS011;11362;48.102;11.620;2022-07-06T07:26:39;4.10;;;1.43;;
22388;SDS011;11362;48.102;11.620;2022-07-06T07:29:04;2.93;;;1.67;;
22388;SDS011;11362;48.102;11.620;2022-07-06T07:31:30;4.97;;;1.77;;
22388;SDS011;11362;48.102;11.620;2022-07-06T07:33:55;4.97;;;1.73;;
22388;SDS011;11362;48.102;11.620;2022-07-06T07:36:20;2.83;;;1.20;;
22388;SDS011;11362;48.102;11.620;2022-07-06T07:38:46;5.20;;;1.37;;
22388;SDS011;11362;48.102;11.620;2022-07-06T07:41:11;4.80;;;1.30;;
22388;SDS011;11362;48.102;11.620;2022-07-06T07:43:36;1.47;;;1.23;;
22388;SDS011;11362;48.102;11.620;2022-07-06T07:46:01;3.87;;;1.30;;
22388;SDS011;11362;48.102;11.620;2022-07-06T07:48:27;5.30;;;1.50;;
22388;SDS011;11362;48.102;11.620;2022-07-06T07:50:52;4.03;;;1.53;;
22388;SDS011;11362;48.102;11.620;2022-07-06T07:53:17;3.83;;;1.10;;
22388;SDS011;11362;48.102;11.620;2022-07-06T07:55:43;4.67;;;1.50;;
22388;SDS011;11362;48.102;11.620;2022-07-06T07:58:08;3.37;;;1.80;;
22388;SDS011;11362;48.102;11.620;2022-07-06T08:00:34;3.83;;;1.30;;
22388;SDS011;11362;48.102;11.620;2022-07-06T08:02:59;4.20;;;1.60;;
22388;SDS011;11362;48.102;11.620;2022-07-06T08:05:24;4.10;;;1.37;;
22388;SDS011;11362;48.102;11.620;2022-07-06T08:07:50;1.47;;;1.30;;
22388;SDS011;11362;48.102;11.620;2022-07-06T08:10:15;4.17;;;1.57;;
22388;SDS011;11362;48.102;11.620;2022-07-06T08:12:40;1.40;;;1.30;;
22388;SDS011;11362;48.102;11.620;2022-07-06T08:15:06;2.00;;;1.27;;
22388;SDS011;11362;48.102;11.620;2022-07-06T08:17:31;4.07;;;1.63;;
22388;SDS011;11362;48.102;11.620;2022-07-06T08:19:57;2.90;;;1.60;;
22388;SDS011;11362;48.102;11.620;2022-07-06T08:22:22;3.80;;;1.73;;
22388;SDS011;11362;48.102;11.620;2022-07-06T08:24:48;2.57;;;1.63;;
22388;SDS011;11362;48.102;11.620;2022-07-06T08:27:13;2.07;;;1.20;;
22388;SDS011;11362;48.102;11.620;2022-07-06T08:29:38;3.53;;;1.10;;
22388;SDS011;11362;48.102;11.620;2022-07-06T08:32:04;2.37;;;1.13;;
22388;SDS011;11362;48.102;11.620;2022-07-06T08:34:29;1.20;;;1.03;;
22388;SDS011;11362;48.102;11.620;2022-07-06T08:36:54;4.10;;;1.30;;
22388;SDS011;11362;48.102;11.620;2022-07-06T08:39:20;3.30;;;1.47;;
22388;SDS011;11362;48.102;11.620;2022-07-06T08:41:45;5.33;;;1.23;;
22388;SDS011;11362;48.102;11.620;2022-07-06T08:44:13;2.23;;;1.13;;
22388;SDS011;11362;48.102;11.620;2022-07-06T08:46:39;2.63;;;1.67;;
22388;SDS011;11362;48.102;11.620;2022-07-06T08:49:05;1.33;;;1.13;;
22388;SDS011;11362;48.102;11.620;2022-07-06T08:51:31;1.57;;;1.33;;
22388;SDS011;11362;48.102;11.620;2022-07-06T08:53:57;2.17;;;1.30;;
22388;SDS011;11362;48.102;11.620;2022-07-06T08:56:23;2.03;;;1.27;;
22388;SDS011;11362;48.102;11.620;2022-07-06T08:58:48;2.67;;;1.20;;
22388;SDS011;11362;48.102;11.620;2022-07-06T09:01:15;2.10;;;1.17;;
22388;SDS011;11362;48.102;11.620;2022-07-06T09:03:41;1.30;;;1.20;;
22388;SDS011;11362;48.102;11.620;2022-07-06T09:06:09;2.03;;;1.20;;
22388;SDS011;11362;48.102;11.620;2022-07-06T09:08:36;3.23;;;1.20;;
22388;SDS011;11362;48.102;11.620;2022-07-06T09:11:01;1.77;;;1.30;;
22388;SDS011;11362;48.102;11.620;2022-07-06T09:13:26;2.93;;;1.10;;
22388;SDS011;11362;48.102;11.620;2022-07-06T09:15:52;1.40;;;1.17;;
22388;SDS011;11362;48.102;11.620;2022-07-06T09:18:17;1.40;;;1.30;;
22388;SDS011;11362;48.102;11.620;2022-07-06T09:20:42;2.10;;;1.50;;
22388;SDS011;11362;48.102;11.620;2022-07-06T09:23:07;2.30;;;1.40;;
22388;SDS011;11362;48.102;11.620;2022-07-06T09:25:33;2.07;;;1.50;;
22388;SDS011;11362;48.102;11.620;2022-07-06T09:28:00;1.30;;;1.20;;
22388;SDS011;11362;48.102;11.620;2022-07-06T09:30:26;5.80;;;1.77;;
22388;SDS011;11362;48.102;11.620;2022-07-06T09:32:55;3.17;;;1.30;;
22388;SDS011;11362;48.102;11.620;2022-07-06T09:35:26;1.57;;;1.20;;
22388;SDS011;11362;48.102;11.620;2022-07-06T09:37:59;1.13;;;1.13;;
22388;SDS011;11362;48.102;11.620;2022-07-06T09:40:24;1.63;;;1.40;;
22388;SDS011;11362;48.102;11.620;2022-07-06T09:42:50;2.07;;;1.33;;
22388;SDS011;11362;48.102;11.620;2022-07-06T09:45:22;3.27;;;1.43;;
22388;SDS011;11362;48.102;11.620;2022-07-06T09:47:47;2.70;;;1.10;;
22388;SDS011;11362;48.102;11.620;2022-07-06T09:50:15;2.13;;;1.30;;
22388;SDS011;11362;48.102;11.620;2022-07-06T09:52:40;3.07;;;1.07;;
22388;SDS011;11362;48.102;11.620;2022-07-06T09:55:13;1.27;;;1.23;;
22388;SDS011;11362;48.102;11.620;2022-07-06T09:57:39;1.17;;;1.10;;
22388;SDS011;11362;48.102;11.620;2022-07-06T10:00:18;3.03;;;1.60;;
22388;SDS011;11362;48.102;11.620;2022-07-06T10:02:44;1.60;;;1.50;;
22388;SDS011;11362;48.102;11.620;2022-07-06T10:05:11;2.43;;;1.00;;
22388;SDS011;11362;48.102;11.620;2022-07-06T10:07:36;3.33;;;1.30;;
22388;SDS011;11362;48.102;11.620;2022-07-06T10:10:02;1.00;;;1.00;;
22388;SDS011;11362;48.102;11.620;2022-07-06T10:12:27;1.47;;;1.23;;
22388;SDS011;11362;48.102;11.620;2022-07-06T10:14:52;1.40;;;1.30;;
22388;SDS011;11362;48.102;11.620;2022-07-06T10:17:18;1.63;;;1.40;;
22388;SDS011;11362;48.102;11.620;2022-07-06T10:19:46;1.93;;;1.23;;
22388;SDS011;11362;48.102;11.620;2022-07-06T10:22:11;1.63;;;1.20;;
22388;SDS011;11362;48.102;11.620;2022-07-06T10:24:38;2.13;;;1.10;;
22388;SDS011;11362;48.102;11.620;2022-07-06T10:27:06;1.40;;;1.30;;
22388;SDS011;11362;48.102;11.620;2022-07-06T10:29:32;1.07;;;1.07;;
22388;SDS011;11362;48.102;11.620;2022-07-06T10:31:58;1.97;;;1.20;;
22388;SDS011;11362;48.102;11.620;2022-07-06T10:34:24;1.10;;;1.10;;
22388;SDS011;11362;48.102;11.620;2022-07-06T10:36:51;1.70;;;1.23;;
22388;SDS011;11362;48.102;11.620;2022-07-06T10:39:17;2.17;;;1.20;;
22388;SDS011;11362;48.102;11.620;2022-07-06T10:41:57;1.23;;;1.20;;
22388;SDS011;11362;48.102;11.620;2022-07-06T10:44:23;1.27;;;1.07;;
22388;SDS011;11362;48.102;11.620;2022-07-06T10:46:54;1.13;;;1.13;;
22388;SDS011;11362;48.102;11.620;2022-07-06T10:49:21;1.47;;;1.20;;
22388;SDS011;11362;48.102;11.620;2022-07-06T10:51:47;3.27;;;1.10;;
22388;SDS011;11362;48.102;11.620;2022-07-06T10:54:14;1.73;;;1.20;;
22388;SDS011;11362;48.102;11.620;2022-07-06T10:56:44;1.27;;;1.17;;
22388;SDS011;11362;48.102;11.620;2022-07-06T10:59:10;1.10;;;1.03;;
22388;SDS011;11362;48.102;11.620;2022-07-06T11:02:29;2.00;;;1.17;;
22388;SDS011;11362;48.102;11.620;2022-07-06T11:04:49;0.97;;;0.97;;
22388;SDS011;11362;48.102;11.620;2022-07-06T11:07:15;3.77;;;1.30;;
22388;SDS011;11362;48.102;11.620;2022-07-06T11:09:55;0.97;;;0.97;;
22388;SDS011;11362;48.102;11.620;2022-07-06T11:12:21;2.63;;;1.10;;
22388;SDS011;11362;48.102;11.620;2022-07-06T11:14:47;2.23;;;1.10;;
22388;SDS011;11362;48.102;11.620;2022-07-06T11:17:14;1.27;;;1.13;;
22388;SDS011;11362;48.102;11.620;2022-07-06T11:19:49;0.93;;;0.93;;
22388;SDS011;11362;48.102;11.620;2022-07-06T11:22:15;1.43;;;0.90;;
22388;SDS011;11362;48.102;11.620;2022-07-06T11:24:42;1.60;;;1.20;;
22388;SDS011;11362;48.102;11.620;2022-07-06T11:27:07;2.20;;;1.10;;
22388;SDS011;11362;48.102;11.620;2022-07-06T11:29:33;1.33;;;1.23;;
22388;SDS011;11362;48.102;11.620;2022-07-06T11:31:59;1.37;;;1.27;;
22388;SDS011;11362;48.102;11.620;2022-07-06T11:34:27;2.00;;;1.30;;
22388;SDS011;11362;48.102;11.620;2022-07-06T11:36:55;2.13;;;1.40;;
22388;SDS011;11362;48.102;11.620;2022-07-06T11:39:21;1.73;;;1.00;;
22388;SDS011;11362;48.102;11.620;2022-07-06T11:41:46;1.47;;;1.20;;
22388;SDS011;11362;48.102;11.620;2022-07-06T11:44:11;2.10;;;1.00;;
22388;SDS011;11362;48.102;11.620;2022-07-06T11:46:37;0.93;;;0.93;;
22388;SDS011;11362;48.102;11.620;2022-07-06T11:49:07;1.27;;;1.17;;
22388;SDS011;11362;48.102;11.620;2022-07-06T11:51:34;1.30;;;1.20;;
22388;SDS011;11362;48.102;11.620;2022-07-06T11:54:07;1.57;;;1.20;;
22388;SDS011;11362;48.102;11.620;2022-07-06T11:56:36;1.20;;;1.20;;
22388;SDS011;11362;48.102;11.620;2022-07-06T11:59:02;1.13;;;1.10;;
22388;SDS011;11362;48.102;11.620;2022-07-06T12:01:29;1.07;;;1.07;;
22388;SDS011;11362;48.102;11.620;2022-07-06T12:03:57;1.00;;;1.00;;
22388;SDS011;11362;48.102;11.620;2022-07-06T12:06:24;1.83;;;1.00;;
22388;SDS011;11362;48.102;11.620;2022-07-06T12:08:54;1.13;;;1.13;;
22388;SDS011;11362;48.102;11.620;2022-07-06T12:11:21;1.30;;;1.20;;
22388;SDS011;11362;48.102;11.620;2022-07-06T12:13:59;0.90;;;0.90;;
22388;SDS011;11362;48.102;11.620;2022-07-06T12:16:44;1.37;;;1.27;;
22388;SDS011;11362;48.102;11.620;2022-07-06T12:19:11;1.80;;;1.10;;
22388;SDS011;11362;48.102;11.620;2022-07-06T12:21:36;2.87;;;1.17;;
22388;SDS011;11362;48.102;11.620;2022-07-06T12:24:08;1.83;;;1.17;;
22388;SDS011;11362;48.102;11.620;2022-07-06T12:26:39;2.27;;;1.20;;
22388;SDS011;11362;48.102;11.620;2022-07-06T12:29:06;1.40;;;1.30;;
22388;SDS011;11362;48.102;11.620;2022-07-06T12:33:58;4.50;;;1.37;;
22388;SDS011;11362;48.102;11.620;2022-07-06T12:36:23;1.23;;;1.13;;
22388;SDS011;11362;48.102;11.620;2022-07-06T12:38:49;2.63;;;1.63;;
22388;SDS011;11362;48.102;11.620;2022-07-06T12:41:33;1.87;;;1.30;;
22388;SDS011;11362;48.102;11.620;2022-07-06T12:44:00;2.23;;;1.53;;
22388;SDS011;11362;48.102;11.620;2022-07-06T12:46:30;4.03;;;1.97;;
22388;SDS011;11362;48.102;11.620;2022-07-06T12:49:00;2.33;;;1.40;;
22388;SDS011;11362;48.102;11.620;2022-07-06T12:51:27;1.63;;;1.53;;
22388;SDS011;11362;48.102;11.620;2022-07-06T12:54:11;1.70;;;1.50;;
22388;SDS011;11362;48.102;11.620;2022-07-06T12:56:37;2.50;;;1.30;;
22388;SDS011;11362;48.102;11.620;2022-07-06T12:59:02;1.70;;;1.60;;
22388;SDS011;11362;48.102;11.620;2022-07-06T13:01:27;3.27;;;1.43;;
22388;SDS011;11362;48.102;11.620;2022-07-06T13:03:53;2.30;;;1.50;;
22388;SDS011;11362;48.102;11.620;2022-07-06T13:06:27;1.53;;;1.43;;
22388;SDS011;11362;48.102;11.620;2022-07-06T13:08:54;1.33;;;1.23;;
22388;SDS011;11362;48.102;11.620;2022-07-06T13:11:19;2.43;;;1.60;;
22388;SDS011;11362;48.102;11.620;2022-07-06T13:13:44;3.20;;;1.53;;
22388;SDS011;11362;48.102;11.620;2022-07-06T13:16:10;2.93;;;1.50;;
22388;SDS011;11362;48.102;11.620;2022-07-06T13:18:35;2.47;;;1.47;;
22388;SDS011;11362;48.102;11.620;2022-07-06T13:21:00;1.80;;;1.40;;
22388;SDS011;11362;48.102;11.620;2022-07-06T13:23:26;2.50;;;1.30;;
22388;SDS011;11362;48.102;11.620;2022-07-06T13:25:51;2.00;;;1.60;;
22388;SDS011;11362;48.102;11.620;2022-07-06T13:28:16;2.53;;;1.40;;
22388;SDS011;11362;48.102;11.620;2022-07-06T13:30:42;1.50;;;1.40;;
22388;SDS011;11362;48.102;11.620;2022-07-06T13:33:07;2.67;;;1.80;;
22388;SDS011;11362;48.102;11.620;2022-07-06T13:35:32;1.60;;;1.50;;
22388;SDS011;11362;48.102;11.620;2022-07-06T13:37:57;2.70;;;1.50;;
22388;SDS011;11362;48.102;11.620;2022-07-06T13:40:23;1.73;;;1.63;;
22388;SDS011;11362;48.102;11.620;2022-07-06T13:42:48;1.70;;;1.37;;
22388;SDS011;11362;48.102;11.620;2022-07-06T13:45:13;2.30;;;1.50;;
22388;SDS011;11362;48.102;11.620;2022-07-06T13:47:38;1.93;;;1.70;;
22388;SDS011;11362;48.102;11.620;2022-07-06T13:50:04;1.13;;;1.13;;
22388;SDS011;11362;48.102;11.620;2022-07-06T13:52:29;1.67;;;1.57;;
22388;SDS011;11362;48.102;11.620;2022-07-06T13:54:55;1.70;;;1.20;;
22388;SDS011;11362;48.102;11.620;2022-07-06T13:57:20;1.50;;;1.40;;
22388;SDS011;11362;48.102;11.620;2022-07-06T13:59:45;2.03;;;1.40;;
22388;SDS011;11362;48.102;11.620;2022-07-06T14:02:11;1.70;;;1.60;;
22388;SDS011;11362;48.102;11.620;2022-07-06T14:04:36;1.40;;;1.30;;
22388;SDS011;11362;48.102;11.620;2022-07-06T14:07:02;4.03;;;1.40;;
22388;SDS011;11362;48.102;11.620;2022-07-06T14:09:27;1.50;;;1.13;;
22388;SDS011;11362;48.102;11.620;2022-07-06T14:11:53;1.43;;;1.43;;
22388;SDS011;11362;48.102;11.620;2022-07-06T14:14:18;1.40;;;1.30;;
22388;SDS011;11362;48.102;11.620;2022-07-06T14:16:43;1.57;;;1.47;;
22388;SDS011;11362;48.102;11.620;2022-07-06T14:19:08;4.33;;;1.60;;
22388;SDS011;11362;48.102;11.620;2022-07-06T14:21:34;1.60;;;1.40;;
22388;SDS011;11362;48.102;11.620;2022-07-06T14:23:59;1.50;;;1.40;;
22388;SDS011;11362;48.102;11.620;2022-07-06T14:26:25;2.17;;;1.60;;
22388;SDS011;11362;48.102;11.620;2022-07-06T14:28:50;1.67;;;1.57;;
22388;SDS011;11362;48.102;11.620;2022-07-06T14:31:15;3.57;;;1.33;;